sensor_id;sensor_type;location;lat;lon;timestamp;P1;durP1;ratioP1;P2;durP2;ratioP2
9270;SDS011;4673;53.458;9.940;2023-05-16T00:02:05;2.30;;;2.30;;
9270;SDS011;4673;53.458;9.940;2023-05-16T00:04:31;2.63;;;2.63;;
9270;SDS011;4673;53.458;9.940;2023-05-16T00:06:57;2.10;;;2.10;;
9270;SDS011;4673;53.458;9.940;2023-05-16T00:09:22;2.27;;;2.27;;
9270;SDS011;4673;53.458;9.940;2023-05-16T00:11:48;2.23;;;2.23;;
9270;SDS011;4673;53.458;9.940;2023-05-16T00:14:15;2.50;;;2.50;;
9270;SDS011;4673;53.458;9.940;2023-05-16T00:16:40;2.80;;;2.80;;
9270;SDS011;4673;53.458;9.940;2023-05-16T00:19:06;2.03;;;2.03;;
9270;SDS011;4673;53.458;9.940;2023-05-16T00:21:32;1.83;;;1.83;;
9270;SDS011;4673;53.458;9.940;2023-05-16T00:23:58;2.23;;;2.23;;
9270;SDS011;4673;53.458;9.940;2023-05-16T00:26:23;1.97;;;1.97;;
9270;SDS011;4673;53.458;9.940;2023-05-16T00:28:50;1.80;;;1.80;;
9270;SDS011;4673;53.458;9.940;2023-05-16T00:31:16;1.70;;;1.70;;
9270;SDS011;4673;53.458;9.940;2023-05-16T00:33:41;2.27;;;2.27;;
9270;SDS011;4673;53.458;9.940;2023-05-16T00:36:07;2.10;;;2.10;;
9270;SDS011;4673;53.458;9.940;2023-05-16T00:38:32;3.17;;;3.17;;
9270;SDS011;4673;53.458;9.940;2023-05-16T00:40:58;2.47;;;2.47;;
9270;SDS011;4673;53.458;9.940;2023-05-16T00:43:24;2.53;;;2.53;;
9270;SDS011;4673;53.458;9.940;2023-05-16T00:45:50;2.63;;;2.63;;
9270;SDS011;4673;53.458;9.940;2023-05-16T00:48:15;2.40;;;2.40;;
9270;SDS011;4673;53.458;9.940;2023-05-16T00:50:42;2.27;;;2.27;;
9270;SDS011;4673;53.458;9.940;2023-05-16T00:53:08;2.27;;;2.27;;
9270;SDS011;4673;53.458;9.940;2023-05-16T00:55:34;2.30;;;2.30;;
9270;SDS011;4673;53.458;9.940;2023-05-16T00:58:00;2.63;;;2.63;;
9270;SDS011;4673;53.458;9.940;2023-05-16T01:00:25;2.23;;;2.23;;
9270;SDS011;4673;53.458;9.940;2023-05-16T01:02:51;2.50;;;2.50;;
9270;SDS011;4673;53.458;9.940;2023-05-16T01:05:18;2.60;;;2.60;;
9270;SDS011;4673;53.458;9.940;2023-05-16T01:07:44;2.17;;;2.17;;
9270;SDS011;4673;53.458;9.940;2023-05-16T01:10:10;2.10;;;2.10;;
9270;SDS011;4673;53.458;9.940;2023-05-16T01:13:00;1.63;;;1.63;;
9270;SDS011;4673;53.458;9.940;2023-05-16T01:15:49;1.60;;;1.60;;
9270;SDS011;4673;53.458;9.940;2023-05-16T01:18:30;1.63;;;1.63;;
9270;SDS011;4673;53.458;9.940;2023-05-16T01:21:16;2.00;;;2.00;;
9270;SDS011;4673;53.458;9.940;2023-05-16T01:23:59;1.87;;;1.87;;
9270;SDS011;4673;53.458;9.940;2023-05-16T01:26:33;1.37;;;1.37;;
9270;SDS011;4673;53.458;9.940;2023-05-16T01:29:00;1.70;;;1.70;;
9270;SDS011;4673;53.458;9.940;2023-05-16T01:31:27;1.73;;;1.73;;
9270;SDS011;4673;53.458;9.940;2023-05-16T01:33:53;2.20;;;2.20;;
9270;SDS011;4673;53.458;9.940;2023-05-16T01:39:09;2.17;;;2.17;;
9270;SDS011;4673;53.458;9.940;2023-05-16T01:41:48;2.00;;;2.00;;
9270;SDS011;4673;53.458;9.940;2023-05-16T01:44:44;2.60;;;2.60;;
9270;SDS011;4673;53.458;9.940;2023-05-16T01:47:18;1.90;;;1.90;;
9270;SDS011;4673;53.458;9.940;2023-05-16T01:49:49;2.50;;;2.50;;
9270;SDS011;4673;53.458;9.940;2023-05-16T01:52:26;2.10;;;2.10;;
9270;SDS011;4673;53.458;9.940;2023-05-16T01:54:55;2.00;;;2.00;;
9270;SDS011;4673;53.458;9.940;2023-05-16T01:57:23;2.97;;;2.97;;
9270;SDS011;4673;53.458;9.940;2023-05-16T01:59:51;3.00;;;3.00;;
9270;SDS011;4673;53.458;9.940;2023-05-16T02:02:17;2.53;;;2.53;;
9270;SDS011;4673;53.458;9.940;2023-05-16T02:04:43;3.23;;;3.23;;
9270;SDS011;4673;53.458;9.940;2023-05-16T02:07:09;3.13;;;3.13;;
9270;SDS011;4673;53.458;9.940;2023-05-16T02:09:35;3.53;;;3.53;;
9270;SDS011;4673;53.458;9.940;2023-05-16T02:12:01;3.13;;;3.13;;
9270;SDS011;4673;53.458;9.940;2023-05-16T02:14:27;2.90;;;2.90;;
9270;SDS011;4673;53.458;9.940;2023-05-16T02:16:53;3.03;;;3.03;;
9270;SDS011;4673;53.458;9.940;2023-05-16T02:19:19;3.07;;;3.07;;
9270;SDS011;4673;53.458;9.940;2023-05-16T02:21:44;3.10;;;3.10;;
9270;SDS011;4673;53.458;9.940;2023-05-16T02:24:10;2.00;;;2.00;;
9270;SDS011;4673;53.458;9.940;2023-05-16T02:26:36;2.47;;;2.47;;
9270;SDS011;4673;53.458;9.940;2023-05-16T02:29:01;2.93;;;2.93;;
9270;SDS011;4673;53.458;9.940;2023-05-16T02:31:30;2.50;;;2.50;;
9270;SDS011;4673;53.458;9.940;2023-05-16T02:33:58;2.00;;;2.00;;
9270;SDS011;4673;53.458;9.940;2023-05-16T02:36:24;1.93;;;1.93;;
9270;SDS011;4673;53.458;9.940;2023-05-16T02:38:49;2.50;;;2.50;;
9270;SDS011;4673;53.458;9.940;2023-05-16T02:41:15;2.43;;;2.43;;
9270;SDS011;4673;53.458;9.940;2023-05-16T02:43:41;1.53;;;1.53;;
9270;SDS011;4673;53.458;9.940;2023-05-16T02:46:23;2.50;;;2.50;;
9270;SDS011;4673;53.458;9.940;2023-05-16T02:48:54;1.80;;;1.80;;
9270;SDS011;4673;53.458;9.940;2023-05-16T02:51:21;2.17;;;2.17;;
9270;SDS011;4673;53.458;9.940;2023-05-16T02:53:48;1.73;;;1.73;;
9270;SDS011;4673;53.458;9.940;2023-05-16T02:56:14;2.33;;;2.33;;
9270;SDS011;4673;53.458;9.940;2023-05-16T02:58:40;1.63;;;1.63;;
9270;SDS011;4673;53.458;9.940;2023-05-16T03:01:06;1.90;;;1.90;;
9270;SDS011;4673;53.458;9.940;2023-05-16T03:03:32;2.20;;;2.20;;
9270;SDS011;4673;53.458;9.940;2023-05-16T03:05:59;2.07;;;2.07;;
9270;SDS011;4673;53.458;9.940;2023-05-16T03:08:25;2.00;;;2.00;;
9270;SDS011;4673;53.458;9.940;2023-05-16T03:10:50;2.17;;;2.17;;
9270;SDS011;4673;53.458;9.940;2023-05-16T03:13:16;1.73;;;1.73;;
9270;SDS011;4673;53.458;9.940;2023-05-16T03:15:42;1.47;;;1.47;;
9270;SDS011;4673;53.458;9.940;2023-05-16T03:18:07;2.53;;;2.53;;
9270;SDS011;4673;53.458;9.940;2023-05-16T03:20:33;2.30;;;2.30;;
9270;SDS011;4673;53.458;9.940;2023-05-16T03:22:59;1.47;;;1.47;;
9270;SDS011;4673;53.458;9.940;2023-05-16T03:25:24;1.67;;;1.67;;
9270;SDS011;4673;53.458;9.940;2023-05-16T03:27:50;1.93;;;1.93;;
9270;SDS011;4673;53.458;9.940;2023-05-16T03:30:16;1.60;;;1.60;;
9270;SDS011;4673;53.458;9.940;2023-05-16T03:32:44;1.83;;;1.83;;
9270;SDS011;4673;53.458;9.940;2023-05-16T03:35:10;2.60;;;2.60;;
9270;SDS011;4673;53.458;9.940;2023-05-16T03:37:36;1.97;;;1.97;;
9270;SDS011;4673;53.458;9.940;2023-05-16T03:40:02;2.60;;;2.60;;
9270;SDS011;4673;53.458;9.940;2023-05-16T03:42:31;2.63;;;2.63;;
9270;SDS011;4673;53.458;9.940;2023-05-16T03:44:56;1.90;;;1.90;;
9270;SDS011;4673;53.458;9.940;2023-05-16T03:47:22;2.07;;;2.07;;
9270;SDS011;4673;53.458;9.940;2023-05-16T03:49:48;2.40;;;2.40;;
9270;SDS011;4673;53.458;9.940;2023-05-16T03:52:13;3.03;;;3.03;;
9270;SDS011;4673;53.458;9.940;2023-05-16T03:54:39;2.13;;;2.13;;
9270;SDS011;4673;53.458;9.940;2023-05-16T03:57:05;1.93;;;1.93;;
9270;SDS011;4673;53.458;9.940;2023-05-16T03:59:31;2.90;;;2.90;;
9270;SDS011;4673;53.458;9.940;2023-05-16T04:01:58;2.97;;;2.93;;
9270;SDS011;4673;53.458;9.940;2023-05-16T04:04:24;2.30;;;2.30;;
9270;SDS011;4673;53.458;9.940;2023-05-16T04:06:50;2.23;;;2.23;;
9270;SDS011;4673;53.458;9.940;2023-05-16T04:09:15;2.53;;;2.53;;
9270;SDS011;4673;53.458;9.940;2023-05-16T04:11:41;2.43;;;2.43;;
9270;SDS011;4673;53.458;9.940;2023-05-16T04:14:07;1.53;;;1.53;;
9270;SDS011;4673;53.458;9.940;2023-05-16T04:16:33;2.83;;;2.83;;
9270;SDS011;4673;53.458;9.940;2023-05-16T04:18:58;2.23;;;2.23;;
9270;SDS011;4673;53.458;9.940;2023-05-16T04:21:24;2.20;;;2.20;;
9270;SDS011;4673;53.458;9.940;2023-05-16T04:23:49;2.67;;;2.67;;
9270;SDS011;4673;53.458;9.940;2023-05-16T04:26:15;1.50;;;1.50;;
9270;SDS011;4673;53.458;9.940;2023-05-16T04:28:41;2.73;;;2.73;;
9270;SDS011;4673;53.458;9.940;2023-05-16T04:31:07;1.93;;;1.93;;
9270;SDS011;4673;53.458;9.940;2023-05-16T04:33:33;2.33;;;2.33;;
9270;SDS011;4673;53.458;9.940;2023-05-16T04:35:58;2.33;;;2.33;;
9270;SDS011;4673;53.458;9.940;2023-05-16T04:38:24;2.37;;;2.37;;
9270;SDS011;4673;53.458;9.940;2023-05-16T04:40:50;2.27;;;2.27;;
9270;SDS011;4673;53.458;9.940;2023-05-16T04:43:17;1.80;;;1.80;;
9270;SDS011;4673;53.458;9.940;2023-05-16T04:45:43;2.13;;;2.13;;
9270;SDS011;4673;53.458;9.940;2023-05-16T04:48:09;2.50;;;2.50;;
9270;SDS011;4673;53.458;9.940;2023-05-16T04:50:36;1.43;;;1.43;;
9270;SDS011;4673;53.458;9.940;2023-05-16T04:53:01;1.53;;;1.53;;
9270;SDS011;4673;53.458;9.940;2023-05-16T04:55:27;2.13;;;2.13;;
9270;SDS011;4673;53.458;9.940;2023-05-16T04:57:53;1.90;;;1.90;;
9270;SDS011;4673;53.458;9.940;2023-05-16T05:00:19;1.57;;;1.57;;
9270;SDS011;4673;53.458;9.940;2023-05-16T05:02:44;2.73;;;2.63;;
9270;SDS011;4673;53.458;9.940;2023-05-16T05:05:10;1.60;;;1.60;;
9270;SDS011;4673;53.458;9.940;2023-05-16T05:07:36;2.23;;;2.23;;
9270;SDS011;4673;53.458;9.940;2023-05-16T05:10:02;1.40;;;1.40;;
9270;SDS011;4673;53.458;9.940;2023-05-16T05:12:28;1.80;;;1.80;;
9270;SDS011;4673;53.458;9.940;2023-05-16T05:14:53;1.30;;;1.30;;
9270;SDS011;4673;53.458;9.940;2023-05-16T05:17:19;2.33;;;2.33;;
9270;SDS011;4673;53.458;9.940;2023-05-16T05:19:46;1.90;;;1.90;;
9270;SDS011;4673;53.458;9.940;2023-05-16T05:22:12;1.63;;;1.63;;
9270;SDS011;4673;53.458;9.940;2023-05-16T05:24:38;1.47;;;1.47;;
9270;SDS011;4673;53.458;9.940;2023-05-16T05:27:04;1.67;;;1.67;;
9270;SDS011;4673;53.458;9.940;2023-05-16T05:29:29;1.40;;;1.40;;
9270;SDS011;4673;53.458;9.940;2023-05-16T05:31:55;2.00;;;2.00;;
9270;SDS011;4673;53.458;9.940;2023-05-16T05:34:21;1.53;;;1.53;;
9270;SDS011;4673;53.458;9.940;2023-05-16T05:36:46;1.90;;;1.90;;
9270;SDS011;4673;53.458;9.940;2023-05-16T05:39:12;2.03;;;2.03;;
9270;SDS011;4673;53.458;9.940;2023-05-16T05:41:38;2.10;;;2.10;;
9270;SDS011;4673;53.458;9.940;2023-05-16T05:44:04;1.17;;;1.17;;
9270;SDS011;4673;53.458;9.940;2023-05-16T05:46:30;1.80;;;1.80;;
9270;SDS011;4673;53.458;9.940;2023-05-16T05:48:56;1.63;;;1.63;;
9270;SDS011;4673;53.458;9.940;2023-05-16T05:51:22;1.93;;;1.93;;
9270;SDS011;4673;53.458;9.940;2023-05-16T05:53:48;2.37;;;2.37;;
9270;SDS011;4673;53.458;9.940;2023-05-16T05:56:14;1.57;;;1.57;;
9270;SDS011;4673;53.458;9.940;2023-05-16T05:58:40;1.80;;;1.80;;
9270;SDS011;4673;53.458;9.940;2023-05-16T06:01:06;2.40;;;2.40;;
9270;SDS011;4673;53.458;9.940;2023-05-16T06:03:32;2.37;;;2.37;;
9270;SDS011;4673;53.458;9.940;2023-05-16T06:05:57;1.77;;;1.77;;
9270;SDS011;4673;53.458;9.940;2023-05-16T06:08:24;2.10;;;2.10;;
9270;SDS011;4673;53.458;9.940;2023-05-16T06:10:50;2.07;;;2.07;;
9270;SDS011;4673;53.458;9.940;2023-05-16T06:13:15;2.23;;;2.23;;
9270;SDS011;4673;53.458;9.940;2023-05-16T06:15:41;1.80;;;1.80;;
9270;SDS011;4673;53.458;9.940;2023-05-16T06:18:06;1.57;;;1.57;;
9270;SDS011;4673;53.458;9.940;2023-05-16T06:20:32;1.43;;;1.43;;
9270;SDS011;4673;53.458;9.940;2023-05-16T06:22:58;1.93;;;1.93;;
9270;SDS011;4673;53.458;9.940;2023-05-16T06:25:23;2.40;;;2.40;;
9270;SDS011;4673;53.458;9.940;2023-05-16T06:27:49;1.87;;;1.87;;
9270;SDS011;4673;53.458;9.940;2023-05-16T06:30:15;1.50;;;1.50;;
9270;SDS011;4673;53.458;9.940;2023-05-16T06:32:40;1.90;;;1.90;;
9270;SDS011;4673;53.458;9.940;2023-05-16T06:35:06;1.87;;;1.87;;
9270;SDS011;4673;53.458;9.940;2023-05-16T06:37:33;1.60;;;1.60;;
9270;SDS011;4673;53.458;9.940;2023-05-16T06:39:59;1.80;;;1.80;;
9270;SDS011;4673;53.458;9.940;2023-05-16T06:42:24;1.40;;;1.40;;
9270;SDS011;4673;53.458;9.940;2023-05-16T06:44:50;2.17;;;2.17;;
9270;SDS011;4673;53.458;9.940;2023-05-16T06:47:16;1.80;;;1.80;;
9270;SDS011;4673;53.458;9.940;2023-05-16T06:49:42;1.70;;;1.70;;
9270;SDS011;4673;53.458;9.940;2023-05-16T06:52:07;1.93;;;1.93;;
9270;SDS011;4673;53.458;9.940;2023-05-16T06:54:33;2.47;;;2.47;;
9270;SDS011;4673;53.458;9.940;2023-05-16T06:56:59;1.70;;;1.70;;
9270;SDS011;4673;53.458;9.940;2023-05-16T06:59:25;1.50;;;1.50;;
9270;SDS011;4673;53.458;9.940;2023-05-16T07:01:50;1.13;;;1.13;;
9270;SDS011;4673;53.458;9.940;2023-05-16T07:04:16;1.40;;;1.40;;
9270;SDS011;4673;53.458;9.940;2023-05-16T07:06:42;2.03;;;2.03;;
9270;SDS011;4673;53.458;9.940;2023-05-16T07:09:07;1.60;;;1.60;;
9270;SDS011;4673;53.458;9.940;2023-05-16T07:11:33;1.77;;;1.77;;
9270;SDS011;4673;53.458;9.940;2023-05-16T07:13:58;1.60;;;1.60;;
9270;SDS011;4673;53.458;9.940;2023-05-16T07:16:24;1.90;;;1.90;;
9270;SDS011;4673;53.458;9.940;2023-05-16T07:18:52;1.73;;;1.73;;
9270;SDS011;4673;53.458;9.940;2023-05-16T07:21:18;1.53;;;1.53;;
9270;SDS011;4673;53.458;9.940;2023-05-16T07:23:44;1.20;;;1.20;;
9270;SDS011;4673;53.458;9.940;2023-05-16T07:26:09;1.67;;;1.67;;
9270;SDS011;4673;53.458;9.940;2023-05-16T07:28:35;2.43;;;2.43;;
9270;SDS011;4673;53.458;9.940;2023-05-16T07:31:01;2.40;;;2.40;;
9270;SDS011;4673;53.458;9.940;2023-05-16T07:33:26;1.47;;;1.47;;
9270;SDS011;4673;53.458;9.940;2023-05-16T07:35:52;1.27;;;1.27;;
9270;SDS011;4673;53.458;9.940;2023-05-16T07:38:19;0.90;;;0.90;;
9270;SDS011;4673;53.458;9.940;2023-05-16T07:40:45;1.20;;;1.20;;
9270;SDS011;4673;53.458;9.940;2023-05-16T07:43:11;1.43;;;1.43;;
9270;SDS011;4673;53.458;9.940;2023-05-16T07:45:36;1.27;;;1.27;;
9270;SDS011;4673;53.458;9.940;2023-05-16T07:48:03;1.37;;;1.37;;
9270;SDS011;4673;53.458;9.940;2023-05-16T07:50:28;1.30;;;1.30;;
9270;SDS011;4673;53.458;9.940;2023-05-16T07:52:54;2.23;;;2.23;;
9270;SDS011;4673;53.458;9.940;2023-05-16T07:55:20;1.40;;;1.40;;
9270;SDS011;4673;53.458;9.940;2023-05-16T07:57:46;1.23;;;1.23;;
9270;SDS011;4673;53.458;9.940;2023-05-16T08:00:13;1.10;;;1.10;;
9270;SDS011;4673;53.458;9.940;2023-05-16T08:02:39;1.60;;;1.60;;
9270;SDS011;4673;53.458;9.940;2023-05-16T08:05:05;1.20;;;1.20;;
9270;SDS011;4673;53.458;9.940;2023-05-16T08:07:31;1.27;;;1.27;;
9270;SDS011;4673;53.458;9.940;2023-05-16T08:09:57;1.60;;;1.60;;
9270;SDS011;4673;53.458;9.940;2023-05-16T08:12:23;1.77;;;1.77;;
9270;SDS011;4673;53.458;9.940;2023-05-16T08:14:49;1.27;;;1.27;;
9270;SDS011;4673;53.458;9.940;2023-05-16T08:17:15;2.07;;;2.07;;
9270;SDS011;4673;53.458;9.940;2023-05-16T08:19:40;1.40;;;1.40;;
9270;SDS011;4673;53.458;9.940;2023-05-16T08:22:06;1.43;;;1.43;;
9270;SDS011;4673;53.458;9.940;2023-05-16T08:24:33;1.13;;;1.13;;
9270;SDS011;4673;53.458;9.940;2023-05-16T08:26:59;1.53;;;1.53;;
9270;SDS011;4673;53.458;9.940;2023-05-16T08:29:25;2.00;;;2.00;;
9270;SDS011;4673;53.458;9.940;2023-05-16T08:31:51;1.77;;;1.77;;
9270;SDS011;4673;53.458;9.940;2023-05-16T08:34:17;1.37;;;1.37;;
9270;SDS011;4673;53.458;9.940;2023-05-16T08:36:42;1.10;;;1.10;;
9270;SDS011;4673;53.458;9.940;2023-05-16T08:39:08;1.43;;;1.43;;
9270;SDS011;4673;53.458;9.940;2023-05-16T08:41:37;1.77;;;1.77;;
9270;SDS011;4673;53.458;9.940;2023-05-16T08:44:03;1.37;;;1.37;;
9270;SDS011;4673;53.458;9.940;2023-05-16T08:46:29;1.17;;;1.17;;
9270;SDS011;4673;53.458;9.940;2023-05-16T08:48:58;1.63;;;1.63;;
9270;SDS011;4673;53.458;9.940;2023-05-16T08:51:25;1.20;;;1.20;;
9270;SDS011;4673;53.458;9.940;2023-05-16T08:53:58;1.30;;;1.30;;
9270;SDS011;4673;53.458;9.940;2023-05-16T08:56:27;1.30;;;1.30;;
9270;SDS011;4673;53.458;9.940;2023-05-16T08:58:53;1.63;;;1.63;;
9270;SDS011;4673;53.458;9.940;2023-05-16T09:01:22;2.07;;;2.07;;
9270;SDS011;4673;53.458;9.940;2023-05-16T09:03:48;2.00;;;2.00;;
9270;SDS011;4673;53.458;9.940;2023-05-16T09:06:15;1.43;;;1.43;;
9270;SDS011;4673;53.458;9.940;2023-05-16T09:08:41;1.67;;;1.67;;
9270;SDS011;4673;53.458;9.940;2023-05-16T09:11:06;1.30;;;1.30;;
9270;SDS011;4673;53.458;9.940;2023-05-16T09:13:33;1.17;;;1.17;;
9270;SDS011;4673;53.458;9.940;2023-05-16T09:16:09;1.20;;;1.20;;
9270;SDS011;4673;53.458;9.940;2023-05-16T09:18:36;1.20;;;1.20;;
9270;SDS011;4673;53.458;9.940;2023-05-16T09:21:06;1.40;;;1.40;;
9270;SDS011;4673;53.458;9.940;2023-05-16T09:23:32;1.37;;;1.37;;
9270;SDS011;4673;53.458;9.940;2023-05-16T09:25:58;1.10;;;1.10;;
9270;SDS011;4673;53.458;9.940;2023-05-16T09:28:24;2.10;;;2.10;;
9270;SDS011;4673;53.458;9.940;2023-05-16T09:30:51;1.40;;;1.40;;
9270;SDS011;4673;53.458;9.940;2023-05-16T09:33:18;1.43;;;1.43;;
9270;SDS011;4673;53.458;9.940;2023-05-16T09:35:46;1.63;;;1.63;;
9270;SDS011;4673;53.458;9.940;2023-05-16T09:38:18;1.13;;;1.13;;
9270;SDS011;4673;53.458;9.940;2023-05-16T09:40:44;1.30;;;1.30;;
9270;SDS011;4673;53.458;9.940;2023-05-16T09:43:10;1.67;;;1.67;;
9270;SDS011;4673;53.458;9.940;2023-05-16T09:45:42;1.00;;;1.00;;
9270;SDS011;4673;53.458;9.940;2023-05-16T09:48:10;1.13;;;1.13;;
9270;SDS011;4673;53.458;9.940;2023-05-16T09:50:39;1.20;;;1.20;;
9270;SDS011;4673;53.458;9.940;2023-05-16T09:53:10;0.80;;;0.80;;
9270;SDS011;4673;53.458;9.940;2023-05-16T09:55:37;1.00;;;1.00;;
9270;SDS011;4673;53.458;9.940;2023-05-16T09:58:03;1.53;;;1.53;;
9270;SDS011;4673;53.458;9.940;2023-05-16T10:00:30;1.20;;;1.20;;
9270;SDS011;4673;53.458;9.940;2023-05-16T10:02:57;1.27;;;1.27;;
9270;SDS011;4673;53.458;9.940;2023-05-16T10:05:26;0.80;;;0.80;;
9270;SDS011;4673;53.458;9.940;2023-05-16T10:07:56;2.10;;;2.10;;
9270;SDS011;4673;53.458;9.940;2023-05-16T10:10:22;1.30;;;1.30;;
9270;SDS011;4673;53.458;9.940;2023-05-16T10:12:49;1.20;;;1.20;;
9270;SDS011;4673;53.458;9.940;2023-05-16T10:15:15;1.70;;;1.70;;
9270;SDS011;4673;53.458;9.940;2023-05-16T10:17:42;1.50;;;1.50;;
9270;SDS011;4673;53.458;9.940;2023-05-16T10:20:13;1.40;;;1.40;;
9270;SDS011;4673;53.458;9.940;2023-05-16T10:22:41;1.47;;;1.47;;
9270;SDS011;4673;53.458;9.940;2023-05-16T10:27:54;1.30;;;1.30;;
9270;SDS011;4673;53.458;9.940;2023-05-16T10:30:20;1.30;;;1.30;;
9270;SDS011;4673;53.458;9.940;2023-05-16T10:32:46;1.50;;;1.50;;
9270;SDS011;4673;53.458;9.940;2023-05-16T10:35:13;1.00;;;1.00;;
9270;SDS011;4673;53.458;9.940;2023-05-16T10:37:40;1.70;;;1.70;;
9270;SDS011;4673;53.458;9.940;2023-05-16T10:40:06;1.50;;;1.50;;
9270;SDS011;4673;53.458;9.940;2023-05-16T10:42:33;1.23;;;1.23;;
9270;SDS011;4673;53.458;9.940;2023-05-16T10:45:14;1.23;;;1.23;;
9270;SDS011;4673;53.458;9.940;2023-05-16T10:47:49;1.13;;;1.13;;
9270;SDS011;4673;53.458;9.940;2023-05-16T10:50:29;1.37;;;1.37;;
9270;SDS011;4673;53.458;9.940;2023-05-16T10:53:13;1.07;;;1.07;;
9270;SDS011;4673;53.458;9.940;2023-05-16T11:01:22;1.47;;;1.47;;
9270;SDS011;4673;53.458;9.940;2023-05-16T11:06:43;1.67;;;1.67;;
9270;SDS011;4673;53.458;9.940;2023-05-16T11:17:07;1.63;;;1.63;;
9270;SDS011;4673;53.458;9.940;2023-05-16T11:22:10;1.37;;;1.37;;
9270;SDS011;4673;53.458;9.940;2023-05-16T11:24:37;1.30;;;1.30;;
9270;SDS011;4673;53.458;9.940;2023-05-16T11:27:04;1.10;;;1.10;;
9270;SDS011;4673;53.458;9.940;2023-05-16T11:29:31;1.00;;;1.00;;
9270;SDS011;4673;53.458;9.940;2023-05-16T11:32:03;1.17;;;1.17;;
9270;SDS011;4673;53.458;9.940;2023-05-16T11:34:30;1.27;;;1.27;;
9270;SDS011;4673;53.458;9.940;2023-05-16T11:36:56;1.47;;;1.47;;
9270;SDS011;4673;53.458;9.940;2023-05-16T11:39:24;1.20;;;1.20;;
9270;SDS011;4673;53.458;9.940;2023-05-16T11:41:50;1.37;;;1.37;;
9270;SDS011;4673;53.458;9.940;2023-05-16T11:44:17;1.63;;;1.63;;
9270;SDS011;4673;53.458;9.940;2023-05-16T11:46:43;1.60;;;1.60;;
9270;SDS011;4673;53.458;9.940;2023-05-16T11:49:08;1.80;;;1.80;;
9270;SDS011;4673;53.458;9.940;2023-05-16T11:51:38;0.70;;;0.70;;
9270;SDS011;4673;53.458;9.940;2023-05-16T11:54:05;1.10;;;1.10;;
9270;SDS011;4673;53.458;9.940;2023-05-16T11:56:31;1.20;;;1.20;;
9270;SDS011;4673;53.458;9.940;2023-05-16T11:58:59;1.33;;;1.33;;
9270;SDS011;4673;53.458;9.940;2023-05-16T12:01:30;1.20;;;1.20;;
9270;SDS011;4673;53.458;9.940;2023-05-16T12:04:00;1.67;;;1.67;;
9270;SDS011;4673;53.458;9.940;2023-05-16T12:06:25;0.87;;;0.87;;
9270;SDS011;4673;53.458;9.940;2023-05-16T12:08:53;1.73;;;1.73;;
9270;SDS011;4673;53.458;9.940;2023-05-16T12:11:19;1.10;;;1.10;;
9270;SDS011;4673;53.458;9.940;2023-05-16T12:13:46;1.40;;;1.40;;
9270;SDS011;4673;53.458;9.940;2023-05-16T12:16:12;1.60;;;1.60;;
9270;SDS011;4673;53.458;9.940;2023-05-16T12:18:38;2.07;;;2.07;;
9270;SDS011;4673;53.458;9.940;2023-05-16T12:21:05;1.33;;;1.33;;
9270;SDS011;4673;53.458;9.940;2023-05-16T12:23:33;1.40;;;1.40;;
9270;SDS011;4673;53.458;9.940;2023-05-16T12:25:59;1.20;;;1.20;;
9270;SDS011;4673;53.458;9.940;2023-05-16T12:28:31;0.80;;;0.80;;
9270;SDS011;4673;53.458;9.940;2023-05-16T12:31:02;1.50;;;1.50;;
9270;SDS011;4673;53.458;9.940;2023-05-16T12:33:28;1.00;;;1.00;;
9270;SDS011;4673;53.458;9.940;2023-05-16T12:35:53;0.83;;;0.83;;
9270;SDS011;4673;53.458;9.940;2023-05-16T12:38:19;1.10;;;1.10;;
9270;SDS011;4673;53.458;9.940;2023-05-16T12:40:46;1.97;;;1.97;;
9270;SDS011;4673;53.458;9.940;2023-05-16T12:43:13;1.50;;;1.50;;
9270;SDS011;4673;53.458;9.940;2023-05-16T12:45:39;1.00;;;1.00;;
9270;SDS011;4673;53.458;9.940;2023-05-16T12:48:14;1.67;;;1.67;;
9270;SDS011;4673;53.458;9.940;2023-05-16T12:50:41;1.53;;;1.53;;
9270;SDS011;4673;53.458;9.940;2023-05-16T12:53:09;1.60;;;1.60;;
9270;SDS011;4673;53.458;9.940;2023-05-16T12:55:37;1.43;;;1.43;;
9270;SDS011;4673;53.458;9.940;2023-05-16T12:58:02;1.77;;;1.77;;
9270;SDS011;4673;53.458;9.940;2023-05-16T13:00:28;1.20;;;1.20;;
9270;SDS011;4673;53.458;9.940;2023-05-16T13:02:57;1.57;;;1.57;;
9270;SDS011;4673;53.458;9.940;2023-05-16T13:05:22;3.03;;;2.93;;
9270;SDS011;4673;53.458;9.940;2023-05-16T13:07:48;0.90;;;0.90;;
9270;SDS011;4673;53.458;9.940;2023-05-16T13:10:17;0.73;;;0.73;;
9270;SDS011;4673;53.458;9.940;2023-05-16T13:12:43;0.97;;;0.97;;
9270;SDS011;4673;53.458;9.940;2023-05-16T13:15:09;1.83;;;1.83;;
9270;SDS011;4673;53.458;9.940;2023-05-16T13:17:40;1.37;;;1.37;;
9270;SDS011;4673;53.458;9.940;2023-05-16T13:20:08;1.17;;;1.17;;
9270;SDS011;4673;53.458;9.940;2023-05-16T13:22:37;1.33;;;1.33;;
9270;SDS011;4673;53.458;9.940;2023-05-16T13:25:04;1.30;;;1.30;;
9270;SDS011;4673;53.458;9.940;2023-05-16T13:27:30;1.60;;;1.60;;
9270;SDS011;4673;53.458;9.940;2023-05-16T13:29:56;1.00;;;1.00;;
9270;SDS011;4673;53.458;9.940;2023-05-16T13:32:23;1.93;;;1.93;;
9270;SDS011;4673;53.458;9.940;2023-05-16T13:34:49;1.17;;;1.17;;
9270;SDS011;4673;53.458;9.940;2023-05-16T13:37:15;0.97;;;0.97;;
9270;SDS011;4673;53.458;9.940;2023-05-16T13:39:41;1.10;;;1.10;;
9270;SDS011;4673;53.458;9.940;2023-05-16T13:42:07;1.07;;;1.07;;
9270;SDS011;4673;53.458;9.940;2023-05-16T13:44:33;1.37;;;1.37;;
9270;SDS011;4673;53.458;9.940;2023-05-16T13:46:58;0.90;;;0.90;;
9270;SDS011;4673;53.458;9.940;2023-05-16T13:49:24;0.60;;;0.60;;
9270;SDS011;4673;53.458;9.940;2023-05-16T13:51:50;1.03;;;1.03;;
9270;SDS011;4673;53.458;9.940;2023-05-16T13:54:16;0.70;;;0.70;;
9270;SDS011;4673;53.458;9.940;2023-05-16T13:56:43;0.67;;;0.67;;
9270;SDS011;4673;53.458;9.940;2023-05-16T13:59:08;1.20;;;1.20;;
9270;SDS011;4673;53.458;9.940;2023-05-16T14:01:34;0.70;;;0.70;;
9270;SDS011;4673;53.458;9.940;2023-05-16T14:04:00;1.00;;;1.00;;
9270;SDS011;4673;53.458;9.940;2023-05-16T14:06:26;0.90;;;0.90;;
9270;SDS011;4673;53.458;9.940;2023-05-16T14:08:52;0.47;;;0.47;;
9270;SDS011;4673;53.458;9.940;2023-05-16T14:11:18;0.60;;;0.60;;
9270;SDS011;4673;53.458;9.940;2023-05-16T14:13:46;0.70;;;0.70;;
9270;SDS011;4673;53.458;9.940;2023-05-16T14:16:13;0.83;;;0.83;;
9270;SDS011;4673;53.458;9.940;2023-05-16T14:18:39;0.70;;;0.70;;
9270;SDS011;4673;53.458;9.940;2023-05-16T14:21:04;0.77;;;0.77;;
9270;SDS011;4673;53.458;9.940;2023-05-16T14:23:30;1.00;;;1.00;;
9270;SDS011;4673;53.458;9.940;2023-05-16T14:25:56;0.63;;;0.63;;
9270;SDS011;4673;53.458;9.940;2023-05-16T14:28:21;0.80;;;0.80;;
9270;SDS011;4673;53.458;9.940;2023-05-16T14:30:47;0.60;;;0.60;;
9270;SDS011;4673;53.458;9.940;2023-05-16T14:33:13;0.60;;;0.60;;
9270;SDS011;4673;53.458;9.940;2023-05-16T14:35:38;0.90;;;0.90;;
9270;SDS011;4673;53.458;9.940;2023-05-16T14:38:05;1.10;;;1.10;;
9270;SDS011;4673;53.458;9.940;2023-05-16T14:40:31;1.33;;;1.33;;
9270;SDS011;4673;53.458;9.940;2023-05-16T14:42:58;1.13;;;1.13;;
9270;SDS011;4673;53.458;9.940;2023-05-16T14:45:24;0.80;;;0.80;;
9270;SDS011;4673;53.458;9.940;2023-05-16T14:47:49;0.77;;;0.77;;
9270;SDS011;4673;53.458;9.940;2023-05-16T14:50:16;1.23;;;1.23;;
9270;SDS011;4673;53.458;9.940;2023-05-16T14:52:42;0.80;;;0.80;;
9270;SDS011;4673;53.458;9.940;2023-05-16T14:55:08;0.90;;;0.90;;
9270;SDS011;4673;53.458;9.940;2023-05-16T14:57:35;1.20;;;1.20;;
9270;SDS011;4673;53.458;9.940;2023-05-16T15:00:01;1.17;;;1.17;;
9270;SDS011;4673;53.458;9.940;2023-05-16T15:02:26;1.00;;;1.00;;
9270;SDS011;4673;53.458;9.940;2023-05-16T15:04:52;0.80;;;0.80;;
9270;SDS011;4673;53.458;9.940;2023-05-16T15:07:18;1.10;;;1.10;;
9270;SDS011;4673;53.458;9.940;2023-05-16T15:09:44;1.07;;;1.07;;
9270;SDS011;4673;53.458;9.940;2023-05-16T15:12:10;1.53;;;1.53;;
9270;SDS011;4673;53.458;9.940;2023-05-16T15:14:36;1.13;;;1.13;;
9270;SDS011;4673;53.458;9.940;2023-05-16T15:17:01;1.37;;;1.37;;
9270;SDS011;4673;53.458;9.940;2023-05-16T15:19:27;0.90;;;0.90;;
9270;SDS011;4673;53.458;9.940;2023-05-16T15:21:53;1.40;;;1.40;;
9270;SDS011;4673;53.458;9.940;2023-05-16T15:24:19;0.93;;;0.93;;
9270;SDS011;4673;53.458;9.940;2023-05-16T15:26:44;1.10;;;1.10;;
9270;SDS011;4673;53.458;9.940;2023-05-16T15:29:10;1.10;;;1.10;;
9270;SDS011;4673;53.458;9.940;2023-05-16T15:31:36;1.07;;;1.07;;
9270;SDS011;4673;53.458;9.940;2023-05-16T15:34:01;1.20;;;1.20;;
9270;SDS011;4673;53.458;9.940;2023-05-16T15:36:27;1.20;;;1.20;;
9270;SDS011;4673;53.458;9.940;2023-05-16T15:38:53;1.10;;;1.10;;